Time;durP1;ratioP1;P1;durP2;ratioP2;P2;SDS_P1;SDS_P2;PMS_P1;PMS_P2;Temp;Humidity;BMP_temperature;BMP_pressure;BME280_temperature;BME280_humidity;BME280_pressure;Samples;Min_cycle;Max_cycle;Signal;HPM_P1;HPM_P2
2022/08/29 00:00:00;;;;;;;0.3;0.3;;;;;;;17.0;100.0;101930;;;;
2022/08/29 00:01:00;;;;;;;0.3;0.3;;;;;;;17.0;100.0;101930;;;;
2022/08/29 00:02:00;;;;;;;0.3;0.3;;;;;;;17.1;100.0;101930;;;;
2022/08/29 00:03:01;;;;;;;0.3;0.3;;;;;;;17.1;100.0;101930;;;;
2022/08/29 00:04:00;;;;;;;0.3;0.3;;;;;;;17.1;100.0;101930;;;;
2022/08/29 00:05:00;;;;;;;0.3;0.3;;;;;;;17.1;100.0;101930;;;;
2022/08/29 00:06:00;;;;;;;0.4;0.4;;;;;;;17.1;100.0;101930;;;;
2022/08/29 00:07:00;;;;;;;0.4;0.4;;;;;;;17.1;100.0;101930;;;;
2022/08/29 00:08:01;;;;;;;0.4;0.4;;;;;;;17.0;100.0;101920;;;;
2022/08/29 00:09:00;;;;;;;0.4;0.4;;;;;;;17.0;100.0;101920;;;;
2022/08/29 00:10:00;;;;;;;0.4;0.4;;;;;;;17.0;100.0;101920;;;;
2022/08/29 00:11:00;;;;;;;0.4;0.4;;;;;;;17.0;100.0;101920;;;;
2022/08/29 00:12:00;;;;;;;0.4;0.4;;;;;;;16.9;100.0;101920;;;;
2022/08/29 00:13:00;;;;;;;0.4;0.4;;;;;;;16.9;100.0;101920;;;;
2022/08/29 00:14:00;;;;;;;0.4;0.4;;;;;;;17.0;100.0;101920;;;;
2022/08/29 00:15:00;;;;;;;0.4;0.4;;;;;;;17.0;100.0;101920;;;;
2022/08/29 00:16:00;;;;;;;0.4;0.4;;;;;;;17.0;100.0;101920;;;;
2022/08/29 00:17:00;;;;;;;0.4;0.4;;;;;;;17.0;100.0;101920;;;;
2022/08/29 00:18:00;;;;;;;0.4;0.4;;;;;;;17.0;100.0;101920;;;;
2022/08/29 00:19:00;;;;;;;0.4;0.4;;;;;;;17.0;100.0;101920;;;;
2022/08/29 00:20:00;;;;;;;0.4;0.4;;;;;;;17.0;100.0;101920;;;;
2022/08/29 00:21:00;;;;;;;0.4;0.4;;;;;;;17.0;100.0;101920;;;;
2022/08/29 00:22:00;;;;;;;0.4;0.4;;;;;;;17.0;100.0;101920;;;;
2022/08/29 00:23:00;;;;;;;0.4;0.4;;;;;;;17.0;100.0;101920;;;;
2022/08/29 00:24:00;;;;;;;0.4;0.4;;;;;;;16.9;100.0;101920;;;;
2022/08/29 00:25:03;;;;;;;0.4;0.4;;;;;;;16.9;100.0;101920;;;;
2022/08/29 00:26:00;;;;;;;0.3;0.3;;;;;;;17.0;100.0;101920;;;;
2022/08/29 00:27:00;;;;;;;0.3;0.3;;;;;;;17.0;100.0;101920;;;;
2022/08/29 00:28:00;;;;;;;0.3;0.3;;;;;;;16.9;100.0;101920;;;;
2022/08/29 00:29:00;;;;;;;0.3;0.3;;;;;;;16.9;100.0;101920;;;;
2022/08/29 00:30:00;;;;;;;0.3;0.3;;;;;;;16.9;100.0;101910;;;;
2022/08/29 00:31:00;;;;;;;0.3;0.3;;;;;;;16.9;100.0;101910;;;;
2022/08/29 00:32:00;;;;;;;0.3;0.3;;;;;;;16.9;100.0;101910;;;;
2022/08/29 00:33:00;;;;;;;0.3;0.3;;;;;;;16.9;100.0;101910;;;;
2022/08/29 00:34:00;;;;;;;0.3;0.3;;;;;;;16.9;100.0;101910;;;;
2022/08/29 00:35:01;;;;;;;0.3;0.3;;;;;;;16.9;100.0;101910;;;;
2022/08/29 00:36:01;;;;;;;0.3;0.3;;;;;;;16.9;100.0;101910;;;;
2022/08/29 00:37:00;;;;;;;0.3;0.3;;;;;;;16.9;100.0;101910;;;;
2022/08/29 00:38:01;;;;;;;0.3;0.3;;;;;;;16.9;100.0;101910;;;;
2022/08/29 00:39:00;;;;;;;0.3;0.3;;;;;;;16.9;100.0;101910;;;;
2022/08/29 00:40:01;;;;;;;0.3;0.3;;;;;;;16.7;100.0;101910;;;;
2022/08/29 00:41:00;;;;;;;0.3;0.3;;;;;;;16.7;100.0;101910;;;;
2022/08/29 00:42:00;;;;;;;0.3;0.3;;;;;;;16.5;100.0;101920;;;;
2022/08/29 00:43:00;;;;;;;0.3;0.3;;;;;;;16.5;100.0;101920;;;;
2022/08/29 00:44:00;;;;;;;0.3;0.3;;;;;;;16.5;100.0;101920;;;;
2022/08/29 00:45:00;;;;;;;0.3;0.3;;;;;;;16.5;100.0;101920;;;;
2022/08/29 00:46:10;;;;;;;0.3;0.3;;;;;;;16.7;100.0;101930;;;;
2022/08/29 00:47:04;;;;;;;0.3;0.3;;;;;;;16.7;100.0;101930;;;;
2022/08/29 00:48:03;;;;;;;0.3;0.3;;;;;;;16.6;100.0;101930;;;;
2022/08/29 00:49:03;;;;;;;0.3;0.3;;;;;;;16.6;100.0;101930;;;;
2022/08/29 00:50:01;;;;;;;0.3;0.3;;;;;;;16.5;100.0;101930;;;;
2022/08/29 00:51:03;;;;;;;0.3;0.3;;;;;;;16.5;100.0;101930;;;;
2022/08/29 00:52:03;;;;;;;0.3;0.3;;;;;;;16.6;100.0;101930;;;;
2022/08/29 00:53:01;;;;;;;0.3;0.3;;;;;;;16.6;100.0;101930;;;;
2022/08/29 00:54:01;;;;;;;0.3;0.3;;;;;;;16.6;100.0;101930;;;;
2022/08/29 00:55:01;;;;;;;0.3;0.3;;;;;;;16.6;100.0;101930;;;;
2022/08/29 00:56:00;;;;;;;0.3;0.3;;;;;;;16.6;100.0;101930;;;;
2022/08/29 00:57:00;;;;;;;0.3;0.3;;;;;;;16.6;100.0;101930;;;;
2022/08/29 00:58:03;;;;;;;0.3;0.3;;;;;;;16.6;100.0;101930;;;;
2022/08/29 00:59:03;;;;;;;0.3;0.3;;;;;;;16.6;100.0;101930;;;;
2022/08/29 01:00:00;;;;;;;0.3;0.3;;;;;;;16.6;100.0;101930;;;;
2022/08/29 01:01:00;;;;;;;0.3;0.3;;;;;;;16.6;100.0;101930;;;;
2022/08/29 01:02:02;;;;;;;0.3;0.3;;;;;;;16.5;100.0;101930;;;;
2022/08/29 01:03:01;;;;;;;0.3;0.3;;;;;;;16.5;100.0;101930;;;;
2022/08/29 01:04:00;;;;;;;0.3;0.3;;;;;;;16.6;100.0;101940;;;;
2022/08/29 01:05:00;;;;;;;0.3;0.3;;;;;;;16.6;100.0;101940;;;;
2022/08/29 01:06:00;;;;;;;0.6;0.6;;;;;;;16.5;100.0;101930;;;;
2022/08/29 01:07:00;;;;;;;0.6;0.6;;;;;;;16.5;100.0;101930;;;;
2022/08/29 01:08:00;;;;;;;0.6;0.6;;;;;;;16.5;100.0;101930;;;;
2022/08/29 01:09:00;;;;;;;0.6;0.6;;;;;;;16.5;100.0;101930;;;;
2022/08/29 01:10:02;;;;;;;0.6;0.6;;;;;;;16.5;100.0;101930;;;;
2022/08/29 01:13:00;;;;;;;0.6;0.6;;;;;;;16.4;100.0;101930;;;;
2022/08/29 01:14:01;;;;;;;0.6;0.6;;;;;;;16.4;100.0;101930;;;;
2022/08/29 01:15:02;;;;;;;0.6;0.6;;;;;;;16.4;100.0;101930;;;;
2022/08/29 01:16:01;;;;;;;0.6;0.6;;;;;;;16.4;100.0;101940;;;;
2022/08/29 01:17:02;;;;;;;0.6;0.6;;;;;;;16.4;100.0;101940;;;;
2022/08/29 01:18:01;;;;;;;0.6;0.6;;;;;;;16.4;100.0;101940;;;;
2022/08/29 01:19:02;;;;;;;0.6;0.6;;;;;;;16.4;100.0;101940;;;;
2022/08/29 01:20:06;;;;;;;0.6;0.6;;;;;;;16.3;100.0;101940;;;;
2022/08/29 01:21:12;;;;;;;0.6;0.6;;;;;;;16.3;100.0;101940;;;;
2022/08/29 01:22:07;;;;;;;0.6;0.6;;;;;;;16.4;100.0;101940;;;;
2022/08/29 01:23:10;;;;;;;0.6;0.6;;;;;;;16.4;100.0;101940;;;;
2022/08/29 01:24:10;;;;;;;0.6;0.6;;;;;;;16.3;100.0;101930;;;;
2022/08/29 01:25:02;;;;;;;0.6;0.6;;;;;;;16.3;100.0;101930;;;;
2022/08/29 01:26:01;;;;;;;0.4;0.4;;;;;;;16.3;100.0;101930;;;;
2022/08/29 01:27:00;;;;;;;0.4;0.4;;;;;;;16.3;100.0;101930;;;;
2022/08/29 01:28:03;;;;;;;0.4;0.4;;;;;;;16.3;100.0;101930;;;;
2022/08/29 01:29:00;;;;;;;0.4;0.4;;;;;;;16.3;100.0;101930;;;;
2022/08/29 01:30:00;;;;;;;0.4;0.4;;;;;;;16.1;100.0;101940;;;;
2022/08/29 01:31:03;;;;;;;0.4;0.4;;;;;;;16.1;100.0;101940;;;;
2022/08/29 01:32:00;;;;;;;0.4;0.4;;;;;;;16.0;100.0;101940;;;;
2022/08/29 01:33:00;;;;;;;0.4;0.4;;;;;;;16.0;100.0;101940;;;;
2022/08/29 01:34:00;;;;;;;0.4;0.4;;;;;;;16.1;100.0;101940;;;;
2022/08/29 01:35:00;;;;;;;0.4;0.4;;;;;;;16.1;100.0;101940;;;;
2022/08/29 01:36:00;;;;;;;0.4;0.4;;;;;;;15.8;100.0;101940;;;;
2022/08/29 01:37:02;;;;;;;0.4;0.4;;;;;;;15.8;100.0;101940;;;;
2022/08/29 01:38:00;;;;;;;0.4;0.4;;;;;;;16.0;100.0;101930;;;;
2022/08/29 01:39:00;;;;;;;0.4;0.4;;;;;;;16.0;100.0;101930;;;;
2022/08/29 01:40:00;;;;;;;0.4;0.4;;;;;;;15.9;100.0;101930;;;;
2022/08/29 01:41:01;;;;;;;0.4;0.4;;;;;;;15.9;100.0;101930;;;;
2022/08/29 01:42:02;;;;;;;0.4;0.4;;;;;;;16.0;100.0;101930;;;;
2022/08/29 01:43:00;;;;;;;0.4;0.4;;;;;;;16.0;100.0;101930;;;;
2022/08/29 01:44:00;;;;;;;0.4;0.4;;;;;;;16.0;100.0;101940;;;;
2022/08/29 01:45:02;;;;;;;0.4;0.4;;;;;;;16.0;100.0;101940;;;;
2022/08/29 01:46:00;;;;;;;0.5;0.5;;;;;;;16.1;100.0;101930;;;;
2022/08/29 01:47:03;;;;;;;0.5;0.5;;;;;;;16.1;100.0;101930;;;;
2022/08/29 01:48:04;;;;;;;0.5;0.5;;;;;;;16.0;100.0;101930;;;;
2022/08/29 01:49:00;;;;;;;0.5;0.5;;;;;;;16.0;100.0;101930;;;;
2022/08/29 01:50:01;;;;;;;0.5;0.5;;;;;;;16.1;100.0;101930;;;;
2022/08/29 01:51:00;;;;;;;0.5;0.5;;;;;;;16.1;100.0;101930;;;;
2022/08/29 01:52:02;;;;;;;0.5;0.5;;;;;;;16.0;100.0;101930;;;;
2022/08/29 01:53:00;;;;;;;0.5;0.5;;;;;;;16.0;100.0;101930;;;;
2022/08/29 01:54:00;;;;;;;0.5;0.5;;;;;;;16.0;100.0;101930;;;;
2022/08/29 01:55:00;;;;;;;0.5;0.5;;;;;;;16.0;100.0;101930;;;;
2022/08/29 01:56:07;;;;;;;0.5;0.5;;;;;;;15.8;100.0;101930;;;;
2022/08/29 01:57:00;;;;;;;0.5;0.5;;;;;;;15.8;100.0;101930;;;;
2022/08/29 01:58:00;;;;;;;0.5;0.5;;;;;;;15.8;100.0;101930;;;;
2022/08/29 01:59:02;;;;;;;0.5;0.5;;;;;;;15.8;100.0;101930;;;;
2022/08/29 02:00:00;;;;;;;0.5;0.5;;;;;;;15.9;100.0;101930;;;;
2022/08/29 02:01:00;;;;;;;0.5;0.5;;;;;;;15.9;100.0;101930;;;;
2022/08/29 02:02:03;;;;;;;0.5;0.5;;;;;;;15.9;100.0;101930;;;;
2022/08/29 02:03:00;;;;;;;0.5;0.5;;;;;;;15.9;100.0;101930;;;;
2022/08/29 02:04:00;;;;;;;0.5;0.5;;;;;;;15.9;100.0;101930;;;;
2022/08/29 02:05:00;;;;;;;0.5;0.5;;;;;;;15.9;100.0;101930;;;;
2022/08/29 02:06:01;;;;;;;2.2;2.0;;;;;;;15.7;100.0;101920;;;;
2022/08/29 02:07:00;;;;;;;2.2;2.0;;;;;;;15.7;100.0;101920;;;;
2022/08/29 02:08:00;;;;;;;2.2;2.0;;;;;;;15.6;100.0;101930;;;;
2022/08/29 02:09:00;;;;;;;2.2;2.0;;;;;;;15.6;100.0;101930;;;;
2022/08/29 02:10:00;;;;;;;2.2;2.0;;;;;;;15.5;100.0;101930;;;;
2022/08/29 02:11:00;;;;;;;2.2;2.0;;;;;;;15.5;100.0;101930;;;;
2022/08/29 02:12:03;;;;;;;2.2;2.0;;;;;;;15.5;100.0;101930;;;;
2022/08/29 02:13:00;;;;;;;2.2;2.0;;;;;;;15.5;100.0;101930;;;;
2022/08/29 02:14:02;;;;;;;2.2;2.0;;;;;;;15.6;100.0;101930;;;;
2022/08/29 02:15:00;;;;;;;2.2;2.0;;;;;;;15.6;100.0;101930;;;;
2022/08/29 02:16:00;;;;;;;2.2;2.0;;;;;;;15.7;100.0;101920;;;;
2022/08/29 02:17:01;;;;;;;2.2;2.0;;;;;;;15.7;100.0;101920;;;;
2022/08/29 02:18:00;;;;;;;2.2;2.0;;;;;;;15.7;100.0;101930;;;;
2022/08/29 02:19:00;;;;;;;2.2;2.0;;;;;;;15.7;100.0;101930;;;;
2022/08/29 02:20:00;;;;;;;2.2;2.0;;;;;;;15.6;100.0;101930;;;;
2022/08/29 02:21:00;;;;;;;2.2;2.0;;;;;;;15.6;100.0;101930;;;;
2022/08/29 02:22:01;;;;;;;2.2;2.0;;;;;;;15.6;100.0;101930;;;;
2022/08/29 02:23:00;;;;;;;2.2;2.0;;;;;;;15.6;100.0;101930;;;;
2022/08/29 02:24:11;;;;;;;2.2;2.0;;;;;;;15.6;100.0;101940;;;;
2022/08/29 02:25:00;;;;;;;2.2;2.0;;;;;;;15.6;100.0;101940;;;;
2022/08/29 02:26:00;;;;;;;1.0;1.0;;;;;;;15.6;100.0;101930;;;;
2022/08/29 02:27:00;;;;;;;1.0;1.0;;;;;;;15.6;100.0;101930;;;;
2022/08/29 02:28:00;;;;;;;1.0;1.0;;;;;;;15.6;100.0;101940;;;;
2022/08/29 02:29:00;;;;;;;1.0;1.0;;;;;;;15.6;100.0;101940;;;;
2022/08/29 02:30:00;;;;;;;1.0;1.0;;;;;;;15.5;100.0;101940;;;;
2022/08/29 02:31:00;;;;;;;1.0;1.0;;;;;;;15.5;100.0;101940;;;;
2022/08/29 02:32:00;;;;;;;1.0;1.0;;;;;;;15.5;100.0;101940;;;;
2022/08/29 02:33:03;;;;;;;1.0;1.0;;;;;;;15.5;100.0;101940;;;;
2022/08/29 02:34:00;;;;;;;1.0;1.0;;;;;;;15.6;100.0;101940;;;;
2022/08/29 02:35:00;;;;;;;1.0;1.0;;;;;;;15.6;100.0;101940;;;;
2022/08/29 02:36:01;;;;;;;1.0;1.0;;;;;;;15.5;100.0;101940;;;;
2022/08/29 02:37:00;;;;;;;1.0;1.0;;;;;;;15.5;100.0;101940;;;;
2022/08/29 02:38:01;;;;;;;1.0;1.0;;;;;;;15.5;100.0;101940;;;;
2022/08/29 02:39:00;;;;;;;1.0;1.0;;;;;;;15.5;100.0;101940;;;;
2022/08/29 02:40:00;;;;;;;1.0;1.0;;;;;;;15.5;100.0;101940;;;;
2022/08/29 02:41:00;;;;;;;1.0;1.0;;;;;;;15.5;100.0;101940;;;;
2022/08/29 02:42:00;;;;;;;1.0;1.0;;;;;;;15.4;100.0;101930;;;;
2022/08/29 02:43:00;;;;;;;1.0;1.0;;;;;;;15.4;100.0;101930;;;;
2022/08/29 02:44:01;;;;;;;1.0;1.0;;;;;;;15.4;100.0;101940;;;;
2022/08/29 02:45:00;;;;;;;1.0;1.0;;;;;;;15.4;100.0;101940;;;;
2022/08/29 02:46:00;;;;;;;2.5;2.2;;;;;;;15.4;100.0;101940;;;;
2022/08/29 02:47:00;;;;;;;2.5;2.2;;;;;;;15.4;100.0;101940;;;;
2022/08/29 02:48:00;;;;;;;2.5;2.2;;;;;;;15.3;100.0;101940;;;;
2022/08/29 02:49:01;;;;;;;2.5;2.2;;;;;;;15.3;100.0;101940;;;;
2022/08/29 02:50:00;;;;;;;2.5;2.2;;;;;;;15.3;100.0;101940;;;;
2022/08/29 02:51:00;;;;;;;2.5;2.2;;;;;;;15.3;100.0;101940;;;;
2022/08/29 02:52:01;;;;;;;2.5;2.2;;;;;;;15.3;100.0;101940;;;;
2022/08/29 02:53:00;;;;;;;2.5;2.2;;;;;;;15.3;100.0;101940;;;;
2022/08/29 02:54:00;;;;;;;2.5;2.2;;;;;;;15.4;100.0;101950;;;;
2022/08/29 02:55:00;;;;;;;2.5;2.2;;;;;;;15.4;100.0;101950;;;;
2022/08/29 02:56:01;;;;;;;2.5;2.2;;;;;;;15.4;100.0;101950;;;;
2022/08/29 02:57:00;;;;;;;2.5;2.2;;;;;;;15.4;100.0;101950;;;;
2022/08/29 02:58:00;;;;;;;2.5;2.2;;;;;;;15.4;100.0;101960;;;;
2022/08/29 02:59:00;;;;;;;2.5;2.2;;;;;;;15.4;100.0;101960;;;;
2022/08/29 03:00:00;;;;;;;2.5;2.2;;;;;;;15.4;100.0;101950;;;;
2022/08/29 03:01:00;;;;;;;2.5;2.2;;;;;;;15.4;100.0;101950;;;;
2022/08/29 03:02:00;;;;;;;2.5;2.2;;;;;;;15.3;100.0;101950;;;;
2022/08/29 03:03:00;;;;;;;2.5;2.2;;;;;;;15.3;100.0;101950;;;;
2022/08/29 03:04:01;;;;;;;2.5;2.2;;;;;;;15.4;100.0;101950;;;;
2022/08/29 03:05:00;;;;;;;2.5;2.2;;;;;;;15.4;100.0;101950;;;;
2022/08/29 03:06:00;;;;;;;1.3;1.3;;;;;;;15.4;100.0;101950;;;;
2022/08/29 03:07:00;;;;;;;1.3;1.3;;;;;;;15.4;100.0;101950;;;;
2022/08/29 03:08:01;;;;;;;1.3;1.3;;;;;;;15.3;100.0;101950;;;;
2022/08/29 03:09:00;;;;;;;1.3;1.3;;;;;;;15.3;100.0;101950;;;;
2022/08/29 03:10:00;;;;;;;1.3;1.3;;;;;;;15.3;100.0;101940;;;;
2022/08/29 03:11:00;;;;;;;1.3;1.3;;;;;;;15.3;100.0;101940;;;;
2022/08/29 03:12:00;;;;;;;1.3;1.3;;;;;;;15.3;100.0;101940;;;;
2022/08/29 03:13:00;;;;;;;1.3;1.3;;;;;;;15.3;100.0;101940;;;;
2022/08/29 03:14:00;;;;;;;1.3;1.3;;;;;;;15.4;100.0;101940;;;;
2022/08/29 03:15:00;;;;;;;1.3;1.3;;;;;;;15.4;100.0;101940;;;;
2022/08/29 03:16:01;;;;;;;1.3;1.3;;;;;;;15.3;100.0;101940;;;;
2022/08/29 03:17:00;;;;;;;1.3;1.3;;;;;;;15.3;100.0;101940;;;;
2022/08/29 03:18:00;;;;;;;1.3;1.3;;;;;;;15.2;100.0;101940;;;;
2022/08/29 03:19:00;;;;;;;1.3;1.3;;;;;;;15.2;100.0;101940;;;;
2022/08/29 03:20:00;;;;;;;1.3;1.3;;;;;;;15.3;100.0;101940;;;;
2022/08/29 03:21:00;;;;;;;1.3;1.3;;;;;;;15.3;100.0;101940;;;;
2022/08/29 03:22:00;;;;;;;1.3;1.3;;;;;;;15.3;100.0;101930;;;;
2022/08/29 03:23:00;;;;;;;1.3;1.3;;;;;;;15.3;100.0;101930;;;;
2022/08/29 03:24:00;;;;;;;1.3;1.3;;;;;;;15.3;100.0;101930;;;;
2022/08/29 03:25:01;;;;;;;0.6;0.6;;;;;;;15.3;100.0;101930;;;;
2022/08/29 03:26:01;;;;;;;0.6;0.6;;;;;;;15.3;100.0;101930;;;;
2022/08/29 03:27:00;;;;;;;0.6;0.6;;;;;;;15.3;100.0;101930;;;;
2022/08/29 03:28:00;;;;;;;0.6;0.6;;;;;;;15.3;100.0;101930;;;;
2022/08/29 03:29:00;;;;;;;0.6;0.6;;;;;;;15.3;100.0;101930;;;;
2022/08/29 03:30:00;;;;;;;0.6;0.6;;;;;;;15.2;100.0;101930;;;;
2022/08/29 03:31:00;;;;;;;0.6;0.6;;;;;;;15.2;100.0;101930;;;;
2022/08/29 03:32:00;;;;;;;0.6;0.6;;;;;;;15.2;100.0;101930;;;;
2022/08/29 03:33:01;;;;;;;0.6;0.6;;;;;;;15.2;100.0;101930;;;;
2022/08/29 03:34:00;;;;;;;0.6;0.6;;;;;;;15.2;100.0;101940;;;;
2022/08/29 03:35:00;;;;;;;0.6;0.6;;;;;;;15.2;100.0;101940;;;;
2022/08/29 03:36:00;;;;;;;0.6;0.6;;;;;;;15.1;100.0;101940;;;;
2022/08/29 03:37:00;;;;;;;0.6;0.6;;;;;;;15.1;100.0;101940;;;;
2022/08/29 03:38:00;;;;;;;0.6;0.6;;;;;;;15.2;100.0;101940;;;;
2022/08/29 03:39:00;;;;;;;0.6;0.6;;;;;;;15.2;100.0;101940;;;;
2022/08/29 03:40:00;;;;;;;0.6;0.6;;;;;;;15.1;100.0;101940;;;;
2022/08/29 03:41:00;;;;;;;0.6;0.6;;;;;;;15.1;100.0;101940;;;;
2022/08/29 03:42:00;;;;;;;0.6;0.6;;;;;;;15.1;100.0;101940;;;;
2022/08/29 03:43:02;;;;;;;0.6;0.6;;;;;;;15.1;100.0;101940;;;;
2022/08/29 03:44:00;;;;;;;0.6;0.6;;;;;;;15.2;100.0;101940;;;;
2022/08/29 03:45:02;;;;;;;2.0;1.9;;;;;;;15.2;100.0;101940;;;;
2022/08/29 03:46:00;;;;;;;2.0;1.9;;;;;;;15.2;100.0;101940;;;;
2022/08/29 03:47:00;;;;;;;2.0;1.9;;;;;;;15.2;100.0;101940;;;;
2022/08/29 03:48:00;;;;;;;2.0;1.9;;;;;;;15.2;100.0;101930;;;;
2022/08/29 03:49:00;;;;;;;2.0;1.9;;;;;;;15.2;100.0;101930;;;;
2022/08/29 03:50:00;;;;;;;2.0;1.9;;;;;;;15.2;100.0;101930;;;;
2022/08/29 03:51:00;;;;;;;2.0;1.9;;;;;;;15.2;100.0;101930;;;;
2022/08/29 03:52:00;;;;;;;2.0;1.9;;;;;;;15.2;100.0;101930;;;;
2022/08/29 03:53:00;;;;;;;2.0;1.9;;;;;;;15.2;100.0;101930;;;;
2022/08/29 03:54:01;;;;;;;2.0;1.9;;;;;;;15.1;100.0;101930;;;;
2022/08/29 03:55:00;;;;;;;2.0;1.9;;;;;;;15.1;100.0;101930;;;;
2022/08/29 03:56:00;;;;;;;2.0;1.9;;;;;;;15.1;100.0;101920;;;;
2022/08/29 03:57:00;;;;;;;2.0;1.9;;;;;;;15.1;100.0;101920;;;;
2022/08/29 03:58:00;;;;;;;2.0;1.9;;;;;;;15.1;100.0;101920;;;;
2022/08/29 03:59:00;;;;;;;2.0;1.9;;;;;;;15.1;100.0;101920;;;;
2022/08/29 04:00:00;;;;;;;2.0;1.9;;;;;;;15.1;100.0;101920;;;;
2022/08/29 04:01:00;;;;;;;2.0;1.9;;;;;;;15.1;100.0;101920;;;;
2022/08/29 04:02:00;;;;;;;2.0;1.9;;;;;;;15.1;100.0;101920;;;;
2022/08/29 04:03:00;;;;;;;2.0;1.9;;;;;;;15.1;100.0;101920;;;;
2022/08/29 04:04:00;;;;;;;2.0;1.9;;;;;;;15.1;100.0;101910;;;;
2022/08/29 04:05:07;;;;;;;10.0;4.7;;;;;;;15.1;100.0;101910;;;;
2022/08/29 04:06:00;;;;;;;10.0;4.7;;;;;;;15.1;100.0;101920;;;;
2022/08/29 04:07:00;;;;;;;10.0;4.7;;;;;;;15.1;100.0;101920;;;;
2022/08/29 04:08:00;;;;;;;10.0;4.7;;;;;;;15.0;100.0;101920;;;;
2022/08/29 04:09:00;;;;;;;10.0;4.7;;;;;;;15.0;100.0;101920;;;;
2022/08/29 04:10:02;;;;;;;10.0;4.7;;;;;;;15.1;100.0;101910;;;;
2022/08/29 04:11:00;;;;;;;10.0;4.7;;;;;;;15.1;100.0;101910;;;;
2022/08/29 04:12:00;;;;;;;10.0;4.7;;;;;;;15.0;100.0;101910;;;;
2022/08/29 04:13:00;;;;;;;10.0;4.7;;;;;;;15.0;100.0;101910;;;;
2022/08/29 04:14:01;;;;;;;10.0;4.7;;;;;;;15.0;100.0;101910;;;;
2022/08/29 04:15:00;;;;;;;10.0;4.7;;;;;;;15.0;100.0;101910;;;;
2022/08/29 04:16:00;;;;;;;10.0;4.7;;;;;;;14.8;100.0;101920;;;;
2022/08/29 04:17:00;;;;;;;10.0;4.7;;;;;;;14.8;100.0;101920;;;;
2022/08/29 04:18:02;;;;;;;10.0;4.7;;;;;;;14.9;100.0;101910;;;;
2022/08/29 04:19:00;;;;;;;10.0;4.7;;;;;;;14.9;100.0;101910;;;;
2022/08/29 04:20:00;;;;;;;10.0;4.7;;;;;;;14.9;100.0;101910;;;;
2022/08/29 04:21:00;;;;;;;10.0;4.7;;;;;;;14.9;100.0;101910;;;;
2022/08/29 04:22:00;;;;;;;10.0;4.7;;;;;;;14.7;100.0;101910;;;;
2022/08/29 04:23:00;;;;;;;10.0;4.7;;;;;;;14.7;100.0;101910;;;;
2022/08/29 04:24:00;;;;;;;10.0;4.7;;;;;;;14.7;100.0;101920;;;;
2022/08/29 04:25:00;;;;;;;6.7;6.1;;;;;;;14.7;100.0;101920;;;;
2022/08/29 04:26:10;;;;;;;6.7;6.1;;;;;;;14.7;100.0;101910;;;;
2022/08/29 04:27:00;;;;;;;6.7;6.1;;;;;;;14.7;100.0;101910;;;;
2022/08/29 04:28:00;;;;;;;6.7;6.1;;;;;;;14.4;100.0;101910;;;;
2022/08/29 04:29:00;;;;;;;6.7;6.1;;;;;;;14.4;100.0;101910;;;;
2022/08/29 04:30:00;;;;;;;6.7;6.1;;;;;;;14.5;100.0;101910;;;;
2022/08/29 04:31:00;;;;;;;6.7;6.1;;;;;;;14.5;100.0;101910;;;;
2022/08/29 04:32:00;;;;;;;6.7;6.1;;;;;;;14.6;100.0;101920;;;;
2022/08/29 04:33:00;;;;;;;6.7;6.1;;;;;;;14.6;100.0;101920;;;;
2022/08/29 04:34:00;;;;;;;6.7;6.1;;;;;;;14.6;100.0;101920;;;;
2022/08/29 04:35:00;;;;;;;6.7;6.1;;;;;;;14.6;100.0;101920;;;;
2022/08/29 04:36:00;;;;;;;6.7;6.1;;;;;;;14.6;100.0;101920;;;;
2022/08/29 04:37:00;;;;;;;6.7;6.1;;;;;;;14.6;100.0;101920;;;;
2022/08/29 04:38:00;;;;;;;6.7;6.1;;;;;;;14.5;100.0;101920;;;;
2022/08/29 04:39:00;;;;;;;6.7;6.1;;;;;;;14.5;100.0;101920;;;;
2022/08/29 04:40:00;;;;;;;6.7;6.1;;;;;;;14.5;100.0;101920;;;;
2022/08/29 04:41:03;;;;;;;6.7;6.1;;;;;;;14.5;100.0;101920;;;;
2022/08/29 04:42:00;;;;;;;6.7;6.1;;;;;;;14.6;100.0;101920;;;;
2022/08/29 04:43:00;;;;;;;6.7;6.1;;;;;;;14.6;100.0;101920;;;;
2022/08/29 04:44:00;;;;;;;6.7;6.1;;;;;;;14.6;100.0;101920;;;;
2022/08/29 04:45:00;;;;;;;5.7;5.2;;;;;;;14.6;100.0;101920;;;;
2022/08/29 04:46:00;;;;;;;5.7;5.2;;;;;;;14.6;100.0;101930;;;;
2022/08/29 04:47:00;;;;;;;5.7;5.2;;;;;;;14.6;100.0;101930;;;;
2022/08/29 04:48:03;;;;;;;5.7;5.2;;;;;;;14.6;100.0;101930;;;;
2022/08/29 04:49:04;;;;;;;5.7;5.2;;;;;;;14.6;100.0;101930;;;;
2022/08/29 04:50:00;;;;;;;5.7;5.2;;;;;;;14.6;100.0;101930;;;;
2022/08/29 04:51:00;;;;;;;5.7;5.2;;;;;;;14.6;100.0;101930;;;;
2022/08/29 04:52:00;;;;;;;5.7;5.2;;;;;;;14.6;100.0;101930;;;;
2022/08/29 04:53:00;;;;;;;5.7;5.2;;;;;;;14.6;100.0;101930;;;;
2022/08/29 04:54:00;;;;;;;5.7;5.2;;;;;;;14.5;100.0;101930;;;;
2022/08/29 04:55:00;;;;;;;5.7;5.2;;;;;;;14.5;100.0;101930;;;;
2022/08/29 04:56:02;;;;;;;5.7;5.2;;;;;;;14.4;100.0;101930;;;;
2022/08/29 04:57:02;;;;;;;5.7;5.2;;;;;;;14.4;100.0;101930;;;;
2022/08/29 04:58:01;;;;;;;5.7;5.2;;;;;;;14.4;100.0;101930;;;;
2022/08/29 04:59:00;;;;;;;5.7;5.2;;;;;;;14.4;100.0;101930;;;;
2022/08/29 05:00:01;;;;;;;5.7;5.2;;;;;;;14.5;100.0;101930;;;;
2022/08/29 05:01:00;;;;;;;5.7;5.2;;;;;;;14.5;100.0;101930;;;;
2022/08/29 05:02:00;;;;;;;5.7;5.2;;;;;;;14.5;100.0;101930;;;;
2022/08/29 05:03:00;;;;;;;5.7;5.2;;;;;;;14.5;100.0;101930;;;;
2022/08/29 05:04:00;;;;;;;5.7;5.2;;;;;;;14.4;100.0;101930;;;;
2022/08/29 05:05:00;;;;;;;9.1;8.2;;;;;;;14.4;100.0;101930;;;;
2022/08/29 05:06:01;;;;;;;9.1;8.2;;;;;;;14.4;100.0;101930;;;;
2022/08/29 05:07:00;;;;;;;9.1;8.2;;;;;;;14.4;100.0;101930;;;;
2022/08/29 05:08:00;;;;;;;9.1;8.2;;;;;;;14.4;100.0;101930;;;;
2022/08/29 05:09:00;;;;;;;9.1;8.2;;;;;;;14.4;100.0;101930;;;;
2022/08/29 05:10:01;;;;;;;9.1;8.2;;;;;;;14.4;100.0;101930;;;;
2022/08/29 05:11:00;;;;;;;9.1;8.2;;;;;;;14.4;100.0;101930;;;;
2022/08/29 05:12:00;;;;;;;9.1;8.2;;;;;;;14.4;100.0;101930;;;;
2022/08/29 05:13:00;;;;;;;9.1;8.2;;;;;;;14.4;100.0;101930;;;;
2022/08/29 05:14:01;;;;;;;9.1;8.2;;;;;;;14.3;100.0;101930;;;;
2022/08/29 05:15:00;;;;;;;9.1;8.2;;;;;;;14.3;100.0;101930;;;;
2022/08/29 05:16:04;;;;;;;9.1;8.2;;;;;;;14.4;100.0;101940;;;;
2022/08/29 05:17:00;;;;;;;9.1;8.2;;;;;;;14.4;100.0;101940;;;;
2022/08/29 05:18:00;;;;;;;9.1;8.2;;;;;;;14.5;100.0;101940;;;;
2022/08/29 05:19:00;;;;;;;9.1;8.2;;;;;;;14.5;100.0;101940;;;;
2022/08/29 05:20:00;;;;;;;9.1;8.2;;;;;;;14.6;100.0;101940;;;;
2022/08/29 05:21:00;;;;;;;9.1;8.2;;;;;;;14.6;100.0;101940;;;;
2022/08/29 05:22:00;;;;;;;9.1;8.2;;;;;;;14.5;100.0;101940;;;;
2022/08/29 05:23:00;;;;;;;9.1;8.2;;;;;;;14.5;100.0;101940;;;;
2022/08/29 05:24:00;;;;;;;9.1;8.2;;;;;;;14.6;100.0;101940;;;;
2022/08/29 05:25:00;;;;;;;7.2;4.2;;;;;;;14.6;100.0;101940;;;;
2022/08/29 05:26:01;;;;;;;7.2;4.2;;;;;;;14.7;100.0;101940;;;;
2022/08/29 05:27:00;;;;;;;7.2;4.2;;;;;;;14.7;100.0;101940;;;;
2022/08/29 05:28:00;;;;;;;7.2;4.2;;;;;;;14.7;100.0;101940;;;;
2022/08/29 05:29:00;;;;;;;7.2;4.2;;;;;;;14.7;100.0;101940;;;;
2022/08/29 05:30:00;;;;;;;7.2;4.2;;;;;;;14.7;100.0;101950;;;;
2022/08/29 05:31:00;;;;;;;7.2;4.2;;;;;;;14.7;100.0;101950;;;;
2022/08/29 05:32:00;;;;;;;7.2;4.2;;;;;;;14.6;100.0;101950;;;;
2022/08/29 05:33:00;;;;;;;7.2;4.2;;;;;;;14.6;100.0;101950;;;;
2022/08/29 05:34:00;;;;;;;7.2;4.2;;;;;;;14.6;100.0;101940;;;;
2022/08/29 05:35:02;;;;;;;7.2;4.2;;;;;;;14.6;100.0;101940;;;;
2022/08/29 05:36:00;;;;;;;7.2;4.2;;;;;;;14.5;100.0;101950;;;;
2022/08/29 05:37:00;;;;;;;7.2;4.2;;;;;;;14.5;100.0;101950;;;;
2022/08/29 05:38:04;;;;;;;7.2;4.2;;;;;;;14.4;100.0;101940;;;;
2022/08/29 05:39:00;;;;;;;7.2;4.2;;;;;;;14.4;100.0;101940;;;;
2022/08/29 05:40:00;;;;;;;7.2;4.2;;;;;;;14.5;100.0;101950;;;;
2022/08/29 05:41:00;;;;;;;7.2;4.2;;;;;;;14.5;100.0;101950;;;;
2022/08/29 05:42:00;;;;;;;7.2;4.2;;;;;;;14.7;100.0;101950;;;;
2022/08/29 05:43:00;;;;;;;7.2;4.2;;;;;;;14.7;100.0;101950;;;;
2022/08/29 05:44:00;;;;;;;7.2;4.2;;;;;;;14.8;100.0;101950;;;;
2022/08/29 05:45:01;;;;;;;16.6;6.4;;;;;;;14.8;100.0;101950;;;;
2022/08/29 05:46:01;;;;;;;16.6;6.4;;;;;;;14.9;100.0;101960;;;;
2022/08/29 05:47:00;;;;;;;16.6;6.4;;;;;;;14.9;100.0;101960;;;;
2022/08/29 05:48:04;;;;;;;16.6;6.4;;;;;;;14.9;100.0;101950;;;;
2022/08/29 05:49:00;;;;;;;16.6;6.4;;;;;;;14.9;100.0;101950;;;;
2022/08/29 05:50:00;;;;;;;16.6;6.4;;;;;;;14.9;100.0;101960;;;;
2022/08/29 05:51:00;;;;;;;16.6;6.4;;;;;;;14.9;100.0;101960;;;;
2022/08/29 05:52:00;;;;;;;16.6;6.4;;;;;;;15.0;100.0;101950;;;;
2022/08/29 05:53:00;;;;;;;16.6;6.4;;;;;;;15.0;100.0;101950;;;;
2022/08/29 05:54:00;;;;;;;16.6;6.4;;;;;;;15.1;100.0;101960;;;;
2022/08/29 05:55:00;;;;;;;16.6;6.4;;;;;;;15.1;100.0;101960;;;;
2022/08/29 05:56:00;;;;;;;16.6;6.4;;;;;;;15.0;100.0;101960;;;;
2022/08/29 05:57:00;;;;;;;16.6;6.4;;;;;;;15.0;100.0;101960;;;;
2022/08/29 05:58:00;;;;;;;16.6;6.4;;;;;;;15.1;100.0;101950;;;;
2022/08/29 05:59:00;;;;;;;16.6;6.4;;;;;;;15.1;100.0;101950;;;;
2022/08/29 06:00:00;;;;;;;16.6;6.4;;;;;;;15.1;100.0;101960;;;;
2022/08/29 06:01:02;;;;;;;16.6;6.4;;;;;;;15.1;100.0;101960;;;;
2022/08/29 06:02:00;;;;;;;16.6;6.4;;;;;;;15.2;100.0;101960;;;;
2022/08/29 06:03:00;;;;;;;16.6;6.4;;;;;;;15.2;100.0;101960;;;;
2022/08/29 06:04:00;;;;;;;16.6;6.4;;;;;;;15.2;100.0;101960;;;;
2022/08/29 06:05:00;;;;;;;4.3;4.1;;;;;;;15.2;100.0;101960;;;;
2022/08/29 06:06:00;;;;;;;4.3;4.1;;;;;;;15.3;100.0;101960;;;;
2022/08/29 06:07:00;;;;;;;4.3;4.1;;;;;;;15.3;100.0;101960;;;;
2022/08/29 06:08:00;;;;;;;4.3;4.1;;;;;;;15.2;100.0;101960;;;;
2022/08/29 06:09:00;;;;;;;4.3;4.1;;;;;;;15.2;100.0;101960;;;;
2022/08/29 06:10:05;;;;;;;4.3;4.1;;;;;;;15.3;100.0;101970;;;;
2022/08/29 06:11:00;;;;;;;4.3;4.1;;;;;;;15.3;100.0;101970;;;;
2022/08/29 06:12:00;;;;;;;4.3;4.1;;;;;;;15.3;100.0;101970;;;;
2022/08/29 06:13:00;;;;;;;4.3;4.1;;;;;;;15.3;100.0;101970;;;;
2022/08/29 06:14:01;;;;;;;4.3;4.1;;;;;;;15.4;100.0;101980;;;;
2022/08/29 06:15:00;;;;;;;4.3;4.1;;;;;;;15.4;100.0;101980;;;;
2022/08/29 06:16:00;;;;;;;4.3;4.1;;;;;;;15.4;100.0;101980;;;;
2022/08/29 06:17:00;;;;;;;4.3;4.1;;;;;;;15.4;100.0;101980;;;;
2022/08/29 06:18:00;;;;;;;4.3;4.1;;;;;;;15.4;100.0;101980;;;;
2022/08/29 06:19:00;;;;;;;4.3;4.1;;;;;;;15.4;100.0;101980;;;;
2022/08/29 06:20:00;;;;;;;4.3;4.1;;;;;;;15.4;100.0;101980;;;;
2022/08/29 06:25:04;;;;;;;10.9;6.8;;;;;;;15.6;100.0;101970;;;;
2022/08/29 06:26:00;;;;;;;10.9;6.8;;;;;;;15.7;100.0;101970;;;;
2022/08/29 06:27:00;;;;;;;10.9;6.8;;;;;;;15.7;100.0;101970;;;;
2022/08/29 06:28:00;;;;;;;10.9;6.8;;;;;;;15.8;100.0;101970;;;;